createdAt,value
2018-07-26T00:02:14.674Z,62.54
2018-07-26T00:04:43.811Z,63.71
2018-07-26T00:07:13.117Z,63.74
2018-07-26T00:09:42.224Z,63.73
2018-07-26T00:12:11.311Z,64.40
2018-07-26T00:14:40.468Z,63.76
2018-07-26T00:17:09.695Z,65.02
2018-07-26T00:19:38.868Z,65.81
2018-07-26T00:22:08.423Z,65.05
2018-07-26T00:24:38.081Z,65.32
2018-07-26T00:27:07.690Z,65.44
2018-07-26T00:29:36.779Z,64.98
2018-07-26T00:32:05.919Z,65.11
2018-07-26T00:34:35.079Z,65.38
2018-07-26T00:37:04.373Z,64.94
2018-07-26T00:39:33.481Z,65.66
2018-07-26T00:42:02.580Z,65.18
2018-07-26T00:44:31.667Z,65.07
2018-07-26T00:47:00.895Z,66.08
2018-07-26T00:49:30.162Z,65.47
2018-07-26T00:51:59.278Z,65.84
2018-07-26T00:54:28.387Z,65.12
2018-07-26T00:56:57.582Z,65.49
2018-07-26T00:59:26.714Z,65.50
2018-07-26T01:01:55.940Z,66.13
2018-07-26T01:04:25.063Z,65.40
2018-07-26T01:06:54.174Z,66.26
2018-07-26T01:09:23.366Z,65.54
2018-07-26T01:11:52.559Z,65.88
2018-07-26T01:14:21.782Z,66.05
2018-07-26T01:16:50.886Z,66.33
2018-07-26T01:19:20.064Z,66.03
2018-07-26T01:21:49.302Z,66.74
2018-07-26T01:24:18.412Z,66.09
2018-07-26T01:26:47.503Z,66.61
2018-07-26T01:29:19.718Z,66.15
2018-07-26T01:31:52.897Z,66.96
2018-07-26T01:34:23.278Z,66.50
2018-07-26T01:36:52.823Z,66.80
2018-07-26T01:39:21.915Z,66.37
2018-07-26T01:41:51.823Z,66.75
2018-07-26T01:44:24.665Z,66.72
2018-07-26T01:46:53.826Z,67.06
2018-07-26T01:49:23.042Z,66.97
2018-07-26T01:51:52.180Z,67.04
2018-07-26T01:54:21.328Z,68.08
2018-07-26T01:56:50.536Z,67.25
2018-07-26T01:59:19.645Z,66.60
2018-07-26T02:01:48.873Z,65.79
2018-07-26T02:04:18.033Z,66.24
2018-07-26T02:06:47.164Z,66.14
2018-07-26T02:09:16.410Z,66.98
2018-07-26T02:11:45.548Z,66.79
2018-07-26T02:14:20.159Z,66.90
2018-07-26T02:16:49.274Z,66.97
2018-07-26T02:19:18.554Z,66.77
2018-07-26T02:21:47.720Z,67.55
2018-07-26T02:24:16.951Z,67.50
2018-07-26T02:26:46.110Z,66.74
2018-07-26T02:29:15.374Z,67.91
2018-07-26T02:31:44.547Z,67.05
2018-07-26T02:34:13.649Z,67.75
2018-07-26T02:36:42.932Z,68.69
2018-07-26T02:39:12.108Z,67.39
2018-07-26T02:41:41.302Z,68.39
2018-07-26T02:44:10.479Z,67.66
2018-07-26T02:46:39.613Z,68.76
2018-07-26T02:49:08.768Z,68.71
2018-07-26T02:51:38.050Z,69.07
2018-07-26T02:54:07.255Z,68.62
2018-07-26T02:56:36.438Z,69.14
2018-07-26T02:59:05.639Z,69.21
2018-07-26T03:01:34.776Z,69.09
2018-07-26T03:04:03.940Z,69.12
2018-07-26T03:06:33.136Z,70.17
2018-07-26T03:09:02.266Z,70.60
2018-07-26T03:11:31.536Z,70.72
2018-07-26T03:14:00.684Z,71.09
2018-07-26T03:16:29.929Z,71.79
2018-07-26T03:18:59.064Z,70.52
2018-07-26T03:21:28.296Z,70.53
2018-07-26T03:23:57.497Z,70.24
2018-07-26T03:26:26.848Z,70.84
2018-07-26T03:28:56.156Z,70.61
2018-07-26T03:31:25.314Z,70.98
2018-07-26T03:33:54.498Z,70.55
2018-07-26T03:36:23.655Z,71.18
2018-07-26T03:38:52.928Z,71.37
2018-07-26T03:41:22.055Z,71.10
2018-07-26T03:43:51.209Z,71.17
2018-07-26T03:46:20.388Z,71.44
2018-07-26T03:48:49.562Z,72.25
2018-07-26T03:51:18.823Z,71.81
2018-07-26T03:53:47.938Z,71.23
2018-07-26T03:56:17.097Z,72.16
2018-07-26T03:58:46.338Z,71.39
2018-07-26T04:01:15.601Z,71.25
2018-07-26T04:03:44.582Z,72.16
2018-07-26T04:06:13.774Z,72.27
2018-07-26T04:08:42.913Z,72.46
2018-07-26T04:11:12.217Z,72.34
2018-07-26T04:13:41.413Z,72.36
2018-07-26T04:16:10.566Z,71.90
2018-07-26T04:18:39.778Z,72.13
2018-07-26T04:21:09.009Z,71.58
2018-07-26T04:23:38.154Z,72.13
2018-07-26T04:26:07.324Z,71.44
2018-07-26T04:28:36.652Z,71.08
2018-07-26T04:31:05.880Z,71.33
2018-07-26T04:33:35.046Z,71.06
2018-07-26T04:36:04.319Z,70.51
2018-07-26T04:38:33.450Z,71.29
2018-07-26T04:41:02.713Z,69.95
2018-07-26T04:43:31.913Z,70.25
2018-07-26T04:46:01.052Z,69.53
2018-07-26T04:48:30.312Z,68.49
2018-07-26T04:50:59.438Z,68.28
2018-07-26T04:53:28.792Z,67.50
2018-07-26T04:55:57.928Z,67.92
2018-07-26T04:58:27.380Z,67.78
2018-07-26T05:00:56.724Z,67.12
2018-07-26T05:03:26.839Z,66.50
2018-07-26T05:05:56.043Z,65.08
2018-07-26T05:08:25.234Z,63.53
2018-07-26T05:10:54.367Z,63.49
2018-07-26T05:13:23.526Z,62.46
2018-07-26T05:15:52.688Z,63.53
2018-07-26T05:18:21.936Z,61.26
2018-07-26T05:20:51.091Z,62.30
2018-07-26T05:23:20.371Z,61.64
2018-07-26T05:25:49.519Z,60.40
2018-07-26T05:28:18.735Z,60.79
2018-07-26T05:30:47.916Z,59.34
2018-07-26T05:33:17.135Z,59.78
2018-07-26T05:35:46.295Z,59.45
2018-07-26T05:38:17.693Z,57.87
2018-07-26T05:40:46.887Z,56.62
2018-07-26T05:43:16.186Z,57.82
2018-07-26T05:45:45.444Z,58.69
2018-07-26T05:48:14.615Z,56.91
2018-07-26T05:50:43.754Z,57.86
2018-07-26T05:53:12.935Z,57.09
2018-07-26T05:55:42.147Z,57.31
2018-07-26T05:58:11.304Z,57.34
2018-07-26T06:00:40.442Z,56.42
2018-07-26T06:03:09.737Z,53.66
2018-07-26T06:05:38.961Z,52.14
2018-07-26T06:08:08.178Z,52.17
2018-07-26T06:10:37.367Z,52.31
2018-07-26T06:13:06.791Z,51.75
2018-07-26T06:15:36.062Z,51.22
2018-07-26T06:18:05.243Z,51.84
2018-07-26T06:20:34.521Z,50.83
2018-07-26T06:23:03.655Z,50.46
2018-07-26T06:25:32.908Z,50.47
2018-07-26T06:28:02.304Z,49.89
2018-07-26T06:30:31.433Z,51.06
2018-07-26T06:33:00.706Z,50.93
2018-07-26T06:35:29.835Z,48.97
2018-07-26T06:37:59.124Z,49.59
2018-07-26T06:40:28.292Z,49.63
2018-07-26T06:42:59.344Z,50.09
2018-07-26T06:45:28.608Z,50.10
2018-07-26T06:47:57.710Z,50.06
2018-07-26T06:50:26.904Z,49.63
2018-07-26T06:52:56.127Z,49.28
2018-07-26T06:55:25.286Z,49.13
2018-07-26T06:57:54.411Z,48.76
2018-07-26T07:00:23.754Z,48.36
2018-07-26T07:02:53.073Z,47.63
2018-07-26T07:05:22.290Z,46.87
2018-07-26T07:07:51.246Z,47.93
2018-07-26T07:10:20.458Z,46.95
2018-07-26T07:12:49.615Z,44.65
2018-07-26T07:15:19.120Z,44.89
2018-07-26T07:17:48.324Z,45.95
2018-07-26T07:20:17.502Z,44.92
2018-07-26T07:22:46.756Z,42.43
2018-07-26T07:25:16.021Z,41.45
2018-07-26T07:27:45.269Z,42.04
2018-07-26T07:30:18.074Z,40.49
2018-07-26T07:32:47.215Z,41.14
2018-07-26T07:35:16.482Z,40.39
2018-07-26T07:37:45.718Z,39.68
2018-07-26T07:40:14.988Z,42.10
2018-07-26T07:42:44.099Z,41.00
2018-07-26T07:45:13.420Z,41.31
2018-07-26T07:47:42.674Z,40.66
2018-07-26T07:50:11.867Z,40.16
2018-07-26T07:52:41.140Z,37.16
2018-07-26T07:55:11.438Z,37.58
2018-07-26T07:57:40.690Z,36.46
2018-07-26T08:00:10.436Z,35.10
2018-07-26T08:02:39.599Z,34.42
2018-07-26T08:05:08.726Z,34.22
2018-07-26T08:07:37.950Z,32.82
2018-07-26T08:10:09.682Z,32.90
2018-07-26T08:12:39.118Z,32.09
2018-07-26T08:15:09.696Z,31.62
2018-07-26T08:17:38.926Z,31.62
2018-07-26T08:20:09.369Z,30.13
2018-07-26T08:22:38.416Z,30.81
2018-07-26T08:25:08.543Z,29.12
2018-07-26T08:27:37.683Z,30.32
2018-07-26T08:30:09.996Z,29.15
2018-07-26T08:32:39.257Z,28.57
2018-07-26T08:35:08.495Z,29.29
2018-07-26T08:37:37.663Z,28.04
2018-07-26T08:40:06.987Z,28.13
2018-07-26T08:42:36.875Z,27.52
2018-07-26T08:45:06.102Z,27.44
2018-07-26T08:47:35.270Z,26.80
2018-07-26T08:50:05.639Z,26.05
2018-07-26T08:52:34.861Z,26.50
2018-07-26T08:55:04.011Z,26.79
2018-07-26T08:57:33.458Z,26.47
2018-07-26T09:00:02.701Z,26.55
2018-07-26T09:02:31.912Z,24.91
2018-07-26T09:05:01.124Z,25.81
2018-07-26T09:07:30.352Z,24.74
2018-07-26T09:09:59.639Z,24.76
2018-07-26T09:12:28.886Z,25.92
2018-07-26T09:14:58.115Z,25.24
2018-07-26T09:17:33.995Z,25.16
2018-07-26T09:20:03.294Z,25.78
2018-07-26T09:22:32.619Z,25.04
2018-07-26T09:25:01.808Z,24.27
2018-07-26T09:27:30.998Z,24.26
2018-07-26T09:30:00.222Z,24.52
2018-07-26T09:32:29.463Z,23.75
2018-07-26T09:34:58.701Z,25.96
2018-07-26T09:37:27.863Z,25.37
2018-07-26T09:39:57.058Z,23.87
2018-07-26T09:42:26.215Z,23.64
2018-07-26T09:44:55.352Z,23.22
2018-07-26T09:47:24.592Z,22.78
2018-07-26T09:49:53.716Z,23.16
2018-07-26T09:52:22.863Z,23.30
2018-07-26T09:54:52.009Z,22.25
2018-07-26T09:57:21.175Z,22.08
2018-07-26T09:59:50.321Z,21.93
2018-07-26T10:02:19.464Z,21.58
2018-07-26T10:04:48.631Z,22.67
2018-07-26T10:07:17.794Z,22.00
2018-07-26T10:09:46.918Z,22.36
2018-07-26T10:12:16.237Z,24.06
2018-07-26T10:14:45.427Z,21.72
2018-07-26T10:17:14.547Z,21.63
2018-07-26T10:19:43.835Z,21.64
2018-07-26T10:22:12.975Z,21.66
2018-07-26T10:24:42.186Z,22.48
2018-07-26T10:27:11.329Z,21.17
2018-07-26T10:29:40.462Z,22.82
2018-07-26T10:32:09.744Z,22.16
2018-07-26T10:34:39.083Z,23.08
2018-07-26T10:37:08.271Z,23.72
2018-07-26T10:39:37.416Z,22.05
2018-07-26T10:42:06.591Z,21.78
2018-07-26T10:44:35.791Z,20.83
2018-07-26T10:47:05.020Z,22.16
2018-07-26T10:49:34.218Z,21.48
2018-07-26T10:52:03.354Z,21.98
2018-07-26T10:54:32.558Z,21.30
2018-07-26T10:57:01.828Z,20.32
2018-07-26T10:59:30.956Z,21.42
2018-07-26T11:02:00.192Z,20.40
2018-07-26T11:04:29.420Z,20.72
2018-07-26T11:06:58.531Z,19.85
2018-07-26T11:09:27.759Z,21.67
2018-07-26T11:11:56.913Z,23.21
2018-07-26T11:14:26.048Z,22.01
2018-07-26T11:16:55.204Z,21.45
2018-07-26T11:19:24.347Z,21.15
2018-07-26T11:21:53.482Z,20.64
2018-07-26T11:24:22.615Z,19.24
2018-07-26T11:26:51.803Z,19.67
2018-07-26T11:29:21.516Z,20.54
2018-07-26T11:31:50.634Z,20.96
2018-07-26T11:34:20.429Z,20.28
2018-07-26T11:36:49.527Z,21.61
2018-07-26T11:39:18.723Z,20.68
2018-07-26T11:41:47.907Z,20.54
2018-07-26T11:44:17.062Z,19.09
2018-07-26T11:46:46.239Z,20.23
2018-07-26T11:49:15.526Z,19.46
2018-07-26T11:51:44.680Z,21.06
2018-07-26T11:54:13.919Z,21.79
2018-07-26T11:56:43.035Z,21.94
2018-07-26T11:59:12.212Z,20.11
2018-07-26T12:01:41.590Z,20.21
2018-07-26T12:04:10.639Z,19.43
2018-07-26T12:06:39.782Z,18.98
2018-07-26T12:09:10.600Z,20.17
2018-07-26T12:11:40.362Z,19.36
2018-07-26T12:14:10.378Z,20.20
2018-07-26T12:16:39.579Z,19.27
2018-07-26T12:19:08.879Z,19.93
2018-07-26T12:21:38.078Z,18.76
2018-07-26T12:24:07.286Z,19.63
2018-07-26T12:26:36.472Z,19.45
2018-07-26T12:29:05.602Z,19.05
2018-07-26T12:31:34.763Z,19.13
2018-07-26T12:34:03.904Z,19.48
2018-07-26T12:36:33.482Z,18.45
2018-07-26T12:39:02.619Z,20.97
2018-07-26T12:41:31.838Z,19.90
2018-07-26T12:44:00.924Z,18.91
2018-07-26T12:46:30.049Z,20.03
2018-07-26T12:48:59.191Z,18.78
2018-07-26T12:51:28.346Z,20.12
2018-07-26T12:53:57.591Z,20.29
2018-07-26T12:56:26.873Z,22.32
2018-07-26T12:58:56.215Z,21.42
2018-07-26T13:01:26.592Z,20.60
2018-07-26T13:03:56.785Z,20.21
2018-07-26T13:06:26.606Z,21.52
2018-07-26T13:08:56.600Z,21.12
2018-07-26T13:11:25.754Z,21.74
2018-07-26T13:13:55.016Z,21.56
2018-07-26T13:16:24.547Z,22.14
2018-07-26T13:18:53.697Z,21.51
2018-07-26T13:21:22.852Z,21.04
2018-07-26T13:23:52.140Z,22.11
2018-07-26T13:26:21.399Z,22.30
2018-07-26T13:28:50.561Z,22.50
2018-07-26T13:31:19.811Z,22.17
2018-07-26T13:33:48.953Z,23.55
2018-07-26T13:36:18.107Z,22.73
2018-07-26T13:38:47.295Z,24.04
2018-07-26T13:41:16.466Z,23.79
2018-07-26T13:43:45.663Z,23.41
2018-07-26T13:46:14.894Z,23.83
2018-07-26T13:48:44.064Z,23.72
2018-07-26T13:51:13.348Z,23.04
2018-07-26T13:53:42.775Z,23.41
2018-07-26T13:56:12.443Z,24.15
2018-07-26T13:58:41.881Z,24.56
2018-07-26T14:01:11.236Z,24.86
2018-07-26T14:03:40.407Z,24.93
2018-07-26T14:06:09.721Z,24.87
2018-07-26T14:08:38.918Z,25.11
2018-07-26T14:11:08.105Z,23.78
2018-07-26T14:13:37.272Z,24.13
2018-07-26T14:16:06.602Z,24.87
2018-07-26T14:18:35.774Z,24.94
2018-07-26T14:21:04.916Z,24.95
2018-07-26T14:23:38.567Z,24.01
2018-07-26T14:26:10.069Z,24.57
2018-07-26T14:28:39.332Z,24.25
2018-07-26T14:31:08.996Z,24.56
2018-07-26T14:33:38.383Z,24.70
2018-07-26T14:36:07.626Z,24.79
2018-07-26T14:38:36.759Z,25.71
2018-07-26T14:41:05.966Z,26.33
2018-07-26T14:43:35.170Z,25.36
2018-07-26T14:46:04.307Z,24.85
2018-07-26T14:48:33.336Z,25.05
2018-07-26T14:51:02.487Z,26.03
2018-07-26T14:53:31.665Z,25.17
2018-07-26T14:56:00.934Z,25.27
2018-07-26T14:58:30.338Z,25.69
2018-07-26T15:00:59.564Z,26.39
2018-07-26T15:03:28.739Z,25.93
2018-07-26T15:05:57.950Z,25.53
2018-07-26T15:08:27.121Z,24.71
2018-07-26T15:10:56.337Z,26.10
2018-07-26T15:13:25.574Z,25.77
2018-07-26T15:15:54.837Z,28.16
2018-07-26T15:18:24.092Z,25.53
2018-07-26T15:20:53.451Z,25.20
2018-07-26T15:23:22.745Z,25.93
2018-07-26T15:25:51.944Z,25.86
2018-07-26T15:28:21.080Z,24.83
2018-07-26T15:30:50.447Z,22.84
2018-07-26T15:33:19.579Z,24.30
2018-07-26T15:35:48.767Z,24.14
2018-07-26T15:38:18.059Z,23.42
2018-07-26T15:40:48.476Z,23.53
2018-07-26T15:43:17.569Z,25.89
2018-07-26T15:45:46.767Z,25.49
2018-07-26T15:48:15.968Z,26.41
2018-07-26T15:50:45.094Z,26.55
2018-07-26T15:53:14.220Z,27.94
2018-07-26T15:55:43.549Z,30.54
2018-07-26T15:58:12.587Z,30.58
2018-07-26T16:00:41.779Z,28.68
2018-07-26T16:03:11.014Z,28.09
2018-07-26T16:05:40.338Z,28.48
2018-07-26T16:08:09.698Z,27.03
2018-07-26T16:10:39.085Z,26.90
2018-07-26T16:13:08.381Z,26.19
2018-07-26T16:15:37.604Z,25.54
2018-07-26T16:18:06.916Z,24.63
2018-07-26T16:20:36.302Z,26.36
2018-07-26T16:23:05.711Z,25.08
2018-07-26T16:25:34.980Z,24.08
2018-07-26T16:28:04.496Z,23.33
2018-07-26T16:30:33.842Z,22.38
2018-07-26T16:33:03.343Z,21.91
2018-07-26T16:35:32.797Z,22.42
2018-07-26T16:38:02.288Z,23.37
2018-07-26T16:40:31.887Z,22.34
2018-07-26T16:43:01.251Z,21.80
2018-07-26T16:45:30.662Z,22.03
2018-07-26T16:47:59.971Z,21.62
2018-07-26T16:50:29.347Z,22.14
2018-07-26T16:52:58.550Z,21.85
2018-07-26T16:55:27.724Z,21.80
2018-07-26T16:57:56.967Z,22.96
2018-07-26T17:00:26.843Z,23.30
2018-07-26T17:02:56.250Z,21.50
2018-07-26T17:05:25.554Z,22.28
2018-07-26T17:07:54.787Z,22.49
2018-07-26T17:10:24.046Z,22.99
2018-07-26T17:12:53.332Z,23.14
2018-07-26T17:15:23.558Z,22.96
2018-07-26T17:17:52.707Z,21.93
2018-07-26T17:20:21.986Z,22.63
2018-07-26T17:22:51.408Z,23.48
2018-07-26T17:25:24.887Z,24.08
2018-07-26T17:27:55.592Z,23.48
2018-07-26T17:30:25.135Z,24.44
2018-07-26T17:32:55.348Z,24.61
2018-07-26T17:35:24.699Z,24.61
2018-07-26T17:37:54.029Z,25.84
2018-07-26T17:40:23.247Z,25.96
2018-07-26T17:42:52.664Z,24.90
2018-07-26T17:45:21.927Z,25.32
2018-07-26T17:47:51.258Z,25.57
2018-07-26T17:50:20.578Z,26.21
2018-07-26T17:55:47.207Z,28.38
2018-07-26T17:58:16.646Z,29.20
2018-07-26T18:00:46.751Z,28.87
2018-07-26T18:03:16.066Z,30.83
2018-07-26T18:05:45.422Z,30.45
2018-07-26T18:08:14.931Z,31.66
2018-07-26T18:10:44.323Z,31.69
2018-07-26T18:13:13.561Z,32.47
2018-07-26T18:15:42.936Z,32.65
2018-07-26T18:18:12.124Z,33.91
2018-07-26T18:20:41.446Z,33.06
2018-07-26T18:23:10.774Z,33.06
2018-07-26T18:25:40.322Z,32.75
2018-07-26T18:28:09.570Z,33.63
2018-07-26T18:30:39.086Z,34.07
2018-07-26T18:33:08.485Z,34.12
2018-07-26T18:35:37.666Z,33.35
2018-07-26T18:38:07.126Z,34.32
2018-07-26T18:40:36.431Z,34.71
2018-07-26T18:43:05.657Z,34.90
2018-07-26T18:45:34.906Z,35.47
2018-07-26T18:48:04.222Z,35.99
2018-07-26T18:50:33.612Z,34.63
2018-07-26T18:53:02.812Z,34.95
2018-07-26T18:55:32.068Z,36.17
2018-07-26T18:58:01.263Z,36.16
2018-07-26T19:00:30.439Z,36.30
2018-07-26T19:03:00.737Z,36.50
2018-07-26T19:05:30.025Z,36.40
2018-07-26T19:07:59.292Z,36.41
2018-07-26T19:10:28.628Z,36.33
2018-07-26T19:12:57.867Z,37.36
2018-07-26T19:15:27.187Z,36.29
2018-07-26T19:17:57.423Z,36.61
2018-07-26T19:20:26.573Z,36.46
2018-07-26T19:22:55.759Z,37.00
2018-07-26T19:25:25.063Z,37.86
2018-07-26T19:27:54.208Z,37.96
2018-07-26T19:30:23.726Z,40.90
2018-07-26T19:32:53.032Z,37.43
2018-07-26T19:35:22.375Z,37.94
2018-07-26T19:37:51.743Z,37.36
2018-07-26T19:40:20.842Z,37.67
2018-07-26T19:42:50.159Z,37.61
2018-07-26T19:45:19.449Z,37.34
2018-07-26T19:47:48.735Z,38.50
2018-07-26T19:50:17.951Z,38.22
2018-07-26T19:52:47.312Z,43.07
2018-07-26T19:55:16.655Z,38.60
2018-07-26T19:57:45.952Z,39.40
2018-07-26T20:00:15.296Z,39.65
2018-07-26T20:02:44.574Z,40.07
2018-07-26T20:05:13.964Z,38.77
2018-07-26T20:07:43.192Z,38.58
2018-07-26T20:10:13.645Z,39.13
2018-07-26T20:12:42.906Z,38.46
2018-07-26T20:15:12.082Z,39.20
2018-07-26T20:17:42.168Z,39.28
2018-07-26T20:20:12.194Z,39.24
2018-07-26T20:22:41.802Z,39.54
2018-07-26T20:25:11.166Z,40.07
2018-07-26T20:27:40.549Z,39.76
2018-07-26T20:30:10.833Z,39.63
2018-07-26T20:32:40.083Z,40.03
2018-07-26T20:35:09.727Z,38.86
2018-07-26T20:37:39.021Z,38.79
